createdAt,value
2023-02-18T00:00:29.548Z,41.27
2023-02-18T00:02:56.520Z,44.10
2023-02-18T00:05:23.435Z,48.03
2023-02-18T00:07:50.642Z,41.23
2023-02-18T00:10:17.972Z,40.87
2023-02-18T00:12:45.508Z,33.30
2023-02-18T00:15:12.504Z,41.17
2023-02-18T00:17:39.463Z,37.90
2023-02-18T00:20:07.743Z,34.00
2023-02-18T00:22:34.724Z,38.47
2023-02-18T00:25:01.631Z,36.10
2023-02-18T00:27:28.601Z,35.40
2023-02-18T00:29:55.497Z,37.53
2023-02-18T00:32:22.430Z,34.70
2023-02-18T00:34:49.302Z,29.07
2023-02-18T00:37:16.211Z,33.07
2023-02-18T00:39:44.276Z,32.40
2023-02-18T00:42:11.216Z,31.10
2023-02-18T00:44:38.100Z,28.67
2023-02-18T00:47:05.131Z,37.37
2023-02-18T00:49:31.976Z,31.97
2023-02-18T00:51:58.840Z,36.47
2023-02-18T00:54:25.761Z,34.50
2023-02-18T00:56:52.713Z,37.13
2023-02-18T00:59:19.593Z,32.37
2023-02-18T01:01:46.873Z,37.80
2023-02-18T01:04:13.748Z,30.40
2023-02-18T01:06:40.612Z,28.00
2023-02-18T01:09:07.610Z,28.53
2023-02-18T01:11:34.947Z,25.47
2023-02-18T01:14:01.937Z,26.20
2023-02-18T01:16:29.010Z,27.20
2023-02-18T01:18:55.914Z,22.10
2023-02-18T01:21:22.765Z,23.77
2023-02-18T01:23:49.624Z,26.43
2023-02-18T01:26:16.516Z,32.60
2023-02-18T01:28:43.385Z,34.33
2023-02-18T01:31:13.407Z,34.57
2023-02-18T01:33:40.999Z,36.00
2023-02-18T01:36:09.546Z,46.63
2023-02-18T01:38:37.005Z,44.20
2023-02-18T01:41:04.503Z,45.60
2023-02-18T01:43:32.126Z,52.23
2023-02-18T01:46:25.410Z,52.27
2023-02-18T01:49:00.098Z,59.57
2023-02-18T01:51:34.238Z,64.10
2023-02-18T01:54:13.243Z,74.50
2023-02-18T01:56:55.104Z,71.37
2023-02-18T01:59:29.914Z,80.10
2023-02-18T02:01:57.394Z,88.07
2023-02-18T02:04:24.756Z,76.13
2023-02-18T02:06:51.636Z,85.40
2023-02-18T02:09:21.460Z,85.93
2023-02-18T02:12:34.006Z,82.97
2023-02-18T02:15:47.380Z,66.27
2023-02-18T02:19:04.493Z,66.87
2023-02-18T02:22:25.610Z,67.67
2023-02-18T02:25:16.481Z,68.47
2023-02-18T02:28:16.502Z,69.27
2023-02-18T02:55:00.239Z,54.20
2023-02-18T02:57:49.418Z,67.43
2023-02-18T03:00:19.601Z,59.13
2023-02-18T03:11:58.791Z,61.57
2023-02-18T03:14:36.306Z,64.83
2023-02-18T03:17:11.225Z,65.53
2023-02-18T03:20:05.485Z,60.20
2023-02-18T03:22:38.278Z,56.27
2023-02-18T03:25:06.259Z,66.73
2023-02-18T03:27:38.621Z,68.37
2023-02-18T03:30:14.034Z,61.93
2023-02-18T03:32:41.196Z,60.00
2023-02-18T03:35:16.167Z,66.47
2023-02-18T03:37:50.445Z,75.37
2023-02-18T03:40:18.690Z,63.63
2023-02-18T03:42:45.959Z,62.43
2023-02-18T03:45:12.866Z,69.03
2023-02-18T03:47:39.781Z,58.13
2023-02-18T03:50:07.852Z,60.03
2023-02-18T03:52:36.753Z,61.90
2023-02-18T03:55:07.352Z,52.90
2023-02-18T03:57:34.329Z,55.03
2023-02-18T04:00:01.246Z,63.60
2023-02-18T04:02:28.118Z,52.33
2023-02-18T04:04:55.062Z,48.87
2023-02-18T04:07:22.148Z,44.23
2023-02-18T04:09:49.236Z,54.13
2023-02-18T04:12:16.137Z,37.27
2023-02-18T04:14:43.106Z,37.80
2023-02-18T04:17:10.216Z,35.87
2023-02-18T04:19:37.152Z,38.40
2023-02-18T04:22:04.128Z,33.70
2023-02-18T04:24:30.995Z,28.27
2023-02-18T04:26:57.893Z,23.20
2023-02-18T04:29:24.812Z,24.90
2023-02-18T04:31:51.814Z,24.40
2023-02-18T04:34:18.751Z,21.70
2023-02-18T04:36:45.711Z,20.70
2023-02-18T04:39:12.628Z,19.13
2023-02-18T04:41:39.697Z,22.20
2023-02-18T04:44:06.560Z,18.77
2023-02-18T04:46:33.695Z,21.37
2023-02-18T04:49:00.648Z,22.70
2023-02-18T04:51:27.605Z,23.20
2023-02-18T04:53:54.539Z,25.77
2023-02-18T04:56:21.450Z,22.90
2023-02-18T04:58:48.360Z,21.93
2023-02-18T05:01:15.231Z,23.60
2023-02-18T05:03:42.228Z,24.73
2023-02-18T05:06:09.414Z,20.03
2023-02-18T05:08:36.513Z,19.50
2023-02-18T05:11:07.300Z,20.37
2023-02-18T05:13:34.629Z,19.20
2023-02-18T05:16:01.670Z,19.23
2023-02-18T05:18:28.688Z,17.07
2023-02-18T05:20:55.574Z,16.73
2023-02-18T05:23:22.427Z,20.90
2023-02-18T05:25:49.363Z,13.90
2023-02-18T05:28:16.213Z,15.10
2023-02-18T05:30:43.313Z,20.50
2023-02-18T05:33:10.230Z,11.37
2023-02-18T05:35:37.239Z,16.40
2023-02-18T05:38:04.300Z,15.70
2023-02-18T05:40:31.246Z,15.80
2023-02-18T05:42:58.258Z,12.33
2023-02-18T05:45:25.195Z,10.17
2023-02-18T05:47:52.122Z,7.57
2023-02-18T05:50:19.124Z,14.20
2023-02-18T05:52:46.064Z,11.23
2023-02-18T05:55:13.128Z,8.93
2023-02-18T05:57:40.375Z,6.90
2023-02-18T06:00:09.963Z,4.93
2023-02-18T06:02:37.398Z,4.97
2023-02-18T06:05:05.671Z,5.77
2023-02-18T06:07:32.585Z,4.83
2023-02-18T06:09:59.609Z,3.03
2023-02-18T06:12:26.612Z,6.60
2023-02-18T06:14:53.473Z,3.23
2023-02-18T06:17:22.647Z,2.70
2023-02-18T06:19:49.602Z,2.80
2023-02-18T06:22:16.512Z,2.30
2023-02-18T06:24:43.353Z,2.00
2023-02-18T06:27:10.211Z,1.73
2023-02-18T06:29:37.188Z,1.70
2023-02-18T06:32:04.551Z,2.10
2023-02-18T06:34:31.549Z,1.70
2023-02-18T06:36:59.412Z,2.00
2023-02-18T06:39:27.949Z,3.37
2023-02-18T06:41:54.797Z,3.07
2023-02-18T06:44:21.700Z,6.93
2023-02-18T06:46:48.665Z,2.40
2023-02-18T06:49:15.545Z,2.43
2023-02-18T06:51:42.469Z,2.80
2023-02-18T06:54:09.408Z,2.93
2023-02-18T06:56:36.281Z,2.90
2023-02-18T06:59:03.196Z,3.50
2023-02-18T07:01:30.073Z,3.60
2023-02-18T07:03:57.000Z,4.10
2023-02-18T07:06:23.932Z,3.93
2023-02-18T07:08:50.887Z,4.97
2023-02-18T07:11:17.891Z,4.60
2023-02-18T07:13:44.813Z,4.20
2023-02-18T07:16:12.254Z,4.30
2023-02-18T07:18:39.494Z,4.30
2023-02-18T07:21:06.371Z,4.07
2023-02-18T07:23:33.236Z,3.87
2023-02-18T07:26:05.825Z,3.10
2023-02-18T07:28:32.904Z,7.03
2023-02-18T07:30:59.883Z,4.57
2023-02-18T07:33:26.737Z,3.10
2023-02-18T07:35:55.811Z,2.50
2023-02-18T07:38:24.072Z,2.73
2023-02-18T07:40:51.352Z,2.90
2023-02-18T07:43:18.516Z,3.10
2023-02-18T07:45:45.452Z,3.67
2023-02-18T07:48:13.520Z,2.53
2023-02-18T07:50:45.267Z,3.50
2023-02-18T07:53:14.413Z,3.80
2023-02-18T07:55:50.235Z,3.80
2023-02-18T07:58:26.525Z,4.30
2023-02-18T08:00:54.659Z,3.57
2023-02-18T08:03:27.251Z,3.50
2023-02-18T08:05:55.368Z,3.70
2023-02-18T08:08:27.659Z,4.07
2023-02-18T08:10:58.547Z,4.43
2023-02-18T08:13:25.748Z,4.53
2023-02-18T08:15:57.780Z,4.73
2023-02-18T08:18:26.439Z,5.70
2023-02-18T08:20:54.086Z,5.20
2023-02-18T08:23:22.083Z,5.60
2023-02-18T08:25:50.942Z,5.70
2023-02-18T08:28:19.995Z,6.70
2023-02-18T08:30:48.685Z,6.67
2023-02-18T08:33:16.550Z,6.47
2023-02-18T08:35:43.987Z,6.87
2023-02-18T08:38:10.941Z,6.90
2023-02-18T08:40:38.193Z,8.63
2023-02-18T08:43:05.055Z,5.63
2023-02-18T08:45:31.927Z,5.97
2023-02-18T08:48:17.901Z,5.20
2023-02-18T08:50:45.619Z,5.50
2023-02-18T08:53:12.446Z,4.93
2023-02-18T08:55:41.604Z,5.53
2023-02-18T08:58:09.104Z,5.93
2023-02-18T09:00:39.075Z,5.30
2023-02-18T09:03:06.207Z,6.60
2023-02-18T09:05:33.241Z,5.77
2023-02-18T09:08:00.377Z,5.40
2023-02-18T09:10:27.304Z,5.20
2023-02-18T09:12:54.157Z,4.53
2023-02-18T09:15:21.025Z,3.70
2023-02-18T09:17:47.860Z,4.17
2023-02-18T09:20:15.305Z,4.20
2023-02-18T09:22:42.214Z,3.57
2023-02-18T09:25:09.131Z,5.20
2023-02-18T09:27:36.047Z,4.93
2023-02-18T09:30:03.558Z,4.80
2023-02-18T09:32:35.001Z,5.53
2023-02-18T09:35:03.804Z,5.30
2023-02-18T09:37:30.779Z,6.23
2023-02-18T09:39:57.698Z,5.90
2023-02-18T09:42:31.222Z,5.20
2023-02-18T09:45:02.705Z,5.17
2023-02-18T09:47:41.321Z,4.80
2023-02-18T09:50:33.128Z,6.13
2023-02-18T09:53:01.831Z,7.23
2023-02-18T09:55:36.350Z,7.03
2023-02-18T09:58:06.772Z,7.40
2023-02-18T10:00:43.242Z,11.00
2023-02-18T10:03:26.103Z,10.10
2023-02-18T10:06:18.429Z,13.10
2023-02-18T10:08:48.131Z,16.33
2023-02-18T10:11:35.285Z,12.03
2023-02-18T10:14:04.262Z,10.03
2023-02-18T10:16:31.492Z,18.87
2023-02-18T10:19:04.026Z,10.40
2023-02-18T10:21:36.221Z,13.00
2023-02-18T10:24:26.779Z,12.57
2023-02-18T10:26:53.779Z,16.17
2023-02-18T10:29:22.131Z,13.43
2023-02-18T10:32:23.279Z,12.70
2023-02-18T10:35:35.290Z,10.77
2023-02-18T10:38:32.494Z,19.80
2023-02-18T10:41:34.502Z,18.20
2023-02-18T10:44:36.364Z,14.10
2023-02-18T10:47:40.340Z,15.40
2023-02-18T10:50:30.606Z,14.13
2023-02-18T10:53:02.155Z,10.53
2023-02-18T10:55:44.946Z,22.17
2023-02-18T10:58:47.268Z,18.63
2023-02-18T11:01:17.324Z,19.00
2023-02-18T11:03:52.606Z,25.80
2023-02-18T11:06:31.867Z,15.83
2023-02-18T11:09:00.655Z,13.73
2023-02-18T11:11:38.050Z,20.63
2023-02-18T11:14:08.169Z,12.40
2023-02-18T11:16:41.353Z,16.00
2023-02-18T11:19:37.318Z,17.27
2023-02-18T11:22:23.555Z,17.77
2023-02-18T11:24:58.998Z,19.40
2023-02-18T11:27:48.636Z,15.90
2023-02-18T11:30:22.920Z,13.87
2023-02-18T11:32:54.474Z,12.50
2023-02-18T11:35:25.774Z,13.10
2023-02-18T11:37:53.626Z,11.73
2023-02-18T11:40:35.289Z,11.87
2023-02-18T11:43:30.129Z,10.67
2023-02-18T11:46:12.071Z,12.00
2023-02-18T11:48:39.215Z,13.17
2023-02-18T11:51:07.370Z,17.10
2023-02-18T11:53:37.615Z,15.27
2023-02-18T11:56:16.632Z,18.43
2023-02-18T11:58:46.376Z,14.50
2023-02-18T12:01:29.978Z,12.93
2023-02-18T12:04:22.330Z,15.73
2023-02-18T12:07:24.994Z,17.40
2023-02-18T12:09:58.160Z,13.60
2023-02-18T12:12:50.970Z,15.37
2023-02-18T12:15:24.447Z,15.63
2023-02-18T12:18:18.696Z,14.97
2023-02-18T12:21:03.597Z,16.17
2023-02-18T12:24:16.382Z,18.87
2023-02-18T12:27:23.013Z,17.13
2023-02-18T12:30:19.071Z,16.53
2023-02-18T12:33:12.379Z,16.03
2023-02-18T12:35:57.539Z,15.33
2023-02-18T12:39:15.615Z,19.47
2023-02-18T12:42:32.051Z,13.47
2023-02-18T12:45:35.510Z,12.20
2023-02-18T12:48:43.129Z,12.13
2023-02-18T12:51:39.031Z,10.13
2023-02-18T12:54:44.852Z,11.60
2023-02-18T12:57:39.406Z,11.43
2023-02-18T13:00:36.278Z,11.73
2023-02-18T13:13:18.714Z,11.83
2023-02-18T13:16:16.355Z,12.07
2023-02-18T13:19:02.193Z,11.67
2023-02-18T13:21:31.193Z,11.43
2023-02-18T13:24:05.660Z,13.20
2023-02-18T13:26:34.882Z,13.53
2023-02-18T13:29:46.022Z,12.43
2023-02-18T13:32:42.117Z,14.97
2023-02-18T13:35:44.535Z,14.07
2023-02-18T13:38:51.984Z,14.27
2023-02-18T13:41:20.227Z,12.73
2023-02-18T13:43:47.964Z,13.17
2023-02-18T13:46:25.039Z,13.67
2023-02-18T13:49:22.751Z,12.33
2023-02-18T13:51:51.984Z,12.57
2023-02-18T13:54:46.547Z,12.43
2023-02-18T13:57:20.098Z,11.67
2023-02-18T13:59:56.667Z,14.03
2023-02-18T14:02:34.123Z,12.47
2023-02-18T14:05:40.002Z,13.67
2023-02-18T14:08:36.697Z,13.40
2023-02-18T14:11:34.985Z,14.07
2023-02-18T14:14:45.844Z,15.60
2023-02-18T14:17:31.267Z,20.07
2023-02-18T14:20:28.390Z,18.27
2023-02-18T14:22:55.730Z,19.90
2023-02-18T14:25:38.432Z,16.60
2023-02-18T14:28:55.386Z,19.23
2023-02-18T14:32:01.842Z,18.17
2023-02-18T14:35:04.663Z,21.27
2023-02-18T14:38:08.031Z,19.17
2023-02-18T14:41:13.873Z,18.07
2023-02-18T14:44:24.382Z,20.53
2023-02-18T14:46:59.988Z,20.60
2023-02-18T14:49:51.940Z,21.47
2023-02-18T14:52:56.792Z,23.23
2023-02-18T14:55:32.669Z,23.90
2023-02-18T14:58:53.474Z,26.13
2023-02-18T15:01:29.781Z,30.70
2023-02-18T15:03:57.251Z,33.57
2023-02-18T15:06:34.288Z,30.63
2023-02-18T15:09:05.799Z,29.27
2023-02-18T15:12:08.237Z,32.93
2023-02-18T15:14:38.881Z,28.73
2023-02-18T15:17:12.176Z,32.30
2023-02-18T15:19:42.959Z,35.00
2023-02-18T15:22:19.625Z,31.57
2023-02-18T15:24:47.150Z,36.63
2023-02-18T15:27:31.532Z,32.77
2023-02-18T15:30:13.164Z,32.00
2023-02-18T15:32:40.136Z,34.93
2023-02-18T15:35:17.401Z,30.97
2023-02-18T15:37:52.048Z,34.17
2023-02-18T15:40:19.855Z,35.00
2023-02-18T15:42:50.468Z,42.30
2023-02-18T15:45:26.004Z,36.53
2023-02-18T15:47:57.883Z,34.73
2023-02-18T15:50:29.177Z,35.43
2023-02-18T15:52:59.867Z,35.33
2023-02-18T15:55:35.616Z,40.73
2023-02-18T15:58:22.850Z,30.27
2023-02-18T16:01:01.601Z,35.47
2023-02-18T16:03:31.231Z,32.40
2023-02-18T16:06:32.518Z,27.70
2023-02-18T16:09:03.430Z,33.90
2023-02-18T16:11:35.666Z,28.50
2023-02-18T16:14:03.313Z,32.60
2023-02-18T16:16:36.278Z,33.13
2023-02-18T16:19:03.788Z,35.93
2023-02-18T16:21:39.847Z,33.27
2023-02-18T16:24:41.011Z,32.30
2023-02-18T16:27:15.835Z,31.27
2023-02-18T16:29:43.667Z,36.83
2023-02-18T16:32:10.788Z,29.97
2023-02-18T16:34:37.781Z,34.77
2023-02-18T16:37:23.265Z,37.47
2023-02-18T16:39:54.592Z,34.37
2023-02-18T16:42:21.967Z,31.97
2023-02-18T16:44:50.609Z,33.20
2023-02-18T16:47:18.590Z,37.60
2023-02-18T16:49:47.976Z,31.77
2023-02-18T16:52:17.229Z,37.50
2023-02-18T16:54:44.135Z,34.60
2023-02-18T16:57:11.631Z,34.27
2023-02-18T16:59:38.508Z,34.17
2023-02-18T17:02:10.757Z,35.60
2023-02-18T17:04:38.290Z,35.90
2023-02-18T17:07:10.973Z,38.97
2023-02-18T17:09:38.029Z,35.87
2023-02-18T17:12:05.187Z,30.23
2023-02-18T17:14:32.217Z,35.10
2023-02-18T17:16:59.359Z,39.27
2023-02-18T17:19:26.338Z,38.60
2023-02-18T17:21:53.209Z,37.90
2023-02-18T17:24:20.058Z,38.50
2023-02-18T17:26:46.981Z,36.40
2023-02-18T17:29:14.072Z,44.83
2023-02-18T17:31:47.626Z,31.60
2023-02-18T17:34:18.607Z,35.83
2023-02-18T17:36:45.580Z,39.90
2023-02-18T17:39:14.525Z,39.10
2023-02-18T17:41:42.393Z,39.07
2023-02-18T17:44:16.232Z,34.50
2023-02-18T17:46:43.278Z,39.00
2023-02-18T17:49:10.174Z,35.20
2023-02-18T17:51:38.441Z,41.40
2023-02-18T17:54:17.139Z,37.00
2023-02-18T17:56:44.345Z,37.27
2023-02-18T17:59:11.394Z,39.50
2023-02-18T18:01:38.574Z,41.03
2023-02-18T18:04:13.142Z,42.63
2023-02-18T18:06:40.180Z,42.90
2023-02-18T18:09:07.089Z,40.33
2023-02-18T18:11:34.243Z,41.30
2023-02-18T18:14:01.259Z,32.70
2023-02-18T18:16:28.236Z,37.67
2023-02-18T18:18:55.209Z,35.37
2023-02-18T18:21:49.043Z,36.17
2023-02-18T18:24:15.933Z,36.23
2023-02-18T18:26:42.903Z,38.53
2023-02-18T18:29:09.764Z,37.30
2023-02-18T18:31:37.689Z,34.07
2023-02-18T18:34:04.686Z,31.03
2023-02-18T18:36:31.550Z,32.43
2023-02-18T18:38:58.386Z,42.20
2023-02-18T18:41:25.392Z,35.77
2023-02-18T18:43:52.505Z,40.20
2023-02-18T18:46:21.954Z,40.93
2023-02-18T18:48:48.912Z,34.67
2023-02-18T18:51:23.099Z,30.63
2023-02-18T18:53:50.086Z,32.80
2023-02-18T18:56:16.986Z,35.10
2023-02-18T18:58:44.864Z,32.50
2023-02-18T19:01:17.748Z,33.57
2023-02-18T19:03:46.544Z,39.73
2023-02-18T19:06:15.953Z,38.10
2023-02-18T19:08:43.399Z,39.40
2023-02-18T19:11:12.980Z,36.13
2023-02-18T19:13:39.958Z,35.70
2023-02-18T19:16:28.791Z,32.20
2023-02-18T19:18:55.701Z,29.73
2023-02-18T19:21:22.625Z,36.93
2023-02-18T19:23:49.551Z,33.77
2023-02-18T19:26:17.115Z,48.53
2023-02-18T19:28:45.262Z,36.90
2023-02-18T19:31:13.136Z,32.00
2023-02-18T19:33:40.452Z,33.80
2023-02-18T19:36:09.332Z,35.17
2023-02-18T19:38:36.556Z,33.67
2023-02-18T19:41:14.432Z,40.33
2023-02-18T19:43:43.014Z,34.70
2023-02-18T19:46:18.312Z,36.33
2023-02-18T19:48:52.692Z,32.60
2023-02-18T19:51:21.434Z,34.30
2023-02-18T19:53:48.337Z,34.60
2023-02-18T19:56:15.178Z,34.17
2023-02-18T19:58:42.135Z,37.60
2023-02-18T20:01:14.117Z,34.23
2023-02-18T20:03:41.823Z,36.03
2023-02-18T20:06:18.552Z,36.40
2023-02-18T20:08:46.350Z,39.70
2023-02-18T20:11:13.388Z,45.43
2023-02-18T20:13:40.310Z,44.03
2023-02-18T20:16:08.822Z,48.80
2023-02-18T20:18:36.404Z,42.47
2023-02-18T20:21:03.489Z,49.30
2023-02-18T20:23:30.503Z,40.93
2023-02-18T20:25:57.462Z,41.63
2023-02-18T20:28:24.407Z,41.83
2023-02-18T20:30:51.314Z,41.67
2023-02-18T20:33:18.245Z,35.97
2023-02-18T20:35:45.121Z,42.03
2023-02-18T20:38:11.984Z,34.43
2023-02-18T20:40:38.857Z,40.40
2023-02-18T20:43:05.708Z,43.60
2023-02-18T20:45:33.082Z,36.27
2023-02-18T20:47:59.927Z,26.93
2023-02-18T20:50:26.927Z,29.47
2023-02-18T20:52:53.778Z,33.17
2023-02-18T20:55:20.635Z,29.47
2023-02-18T20:57:47.512Z,23.87
2023-02-18T21:00:15.273Z,28.93
2023-02-18T21:02:42.285Z,24.40
2023-02-18T21:05:09.276Z,22.27
2023-02-18T21:07:36.220Z,18.87
2023-02-18T21:10:04.258Z,22.33
2023-02-18T21:12:31.608Z,18.80
2023-02-18T21:14:58.464Z,12.13
2023-02-18T21:17:25.371Z,11.47
2023-02-18T21:19:52.220Z,12.10
2023-02-18T21:22:19.172Z,9.50
2023-02-18T21:24:46.056Z,9.17
2023-02-18T21:27:12.897Z,8.03
2023-02-18T21:29:39.766Z,9.83
2023-02-18T21:32:07.676Z,11.00
2023-02-18T21:34:34.650Z,7.53
2023-02-18T21:37:01.493Z,7.63
2023-02-18T21:39:28.360Z,6.60
2023-02-18T21:41:57.319Z,7.50
2023-02-18T21:44:32.961Z,6.57
2023-02-18T21:47:07.409Z,6.83
2023-02-18T21:49:34.359Z,7.13
2023-02-18T21:52:08.264Z,9.90
2023-02-18T21:54:40.431Z,9.27
2023-02-18T21:57:12.140Z,11.70
2023-02-18T21:59:39.975Z,11.53
2023-02-18T22:02:12.833Z,10.37
2023-02-18T22:04:39.780Z,11.67
2023-02-18T22:07:06.743Z,11.37
2023-02-18T22:09:33.587Z,19.07
2023-02-18T22:12:00.413Z,27.27
2023-02-18T22:14:27.390Z,36.53
2023-02-18T22:16:54.275Z,44.57
2023-02-18T22:19:21.324Z,46.80
2023-02-18T22:21:49.008Z,59.43
2023-02-18T22:24:16.973Z,60.13
2023-02-18T22:26:45.026Z,63.00
2023-02-18T22:29:13.290Z,56.83
2023-02-18T22:31:40.994Z,66.50
2023-02-18T22:34:08.495Z,57.37
2023-02-18T22:36:35.286Z,59.97
2023-02-18T22:39:02.733Z,56.10
2023-02-18T22:41:31.448Z,56.93
2023-02-18T22:44:01.290Z,66.67
2023-02-18T22:46:30.081Z,53.23
2023-02-18T22:48:58.026Z,52.37
2023-02-18T22:51:44.913Z,53.40
2023-02-18T22:54:14.803Z,49.80
2023-02-18T22:56:42.216Z,48.80
2023-02-18T22:59:11.382Z,53.80
2023-02-18T23:01:41.587Z,51.67
2023-02-18T23:04:11.068Z,52.37
2023-02-18T23:06:39.729Z,43.17
2023-02-18T23:09:07.883Z,39.23
2023-02-18T23:11:34.964Z,37.70
2023-02-18T23:14:19.941Z,38.50
2023-02-18T23:17:15.121Z,33.67
2023-02-18T23:19:53.992Z,32.40
2023-02-18T23:22:35.683Z,34.30
2023-02-18T23:25:02.601Z,33.93
2023-02-18T23:27:30.010Z,38.63
2023-02-18T23:29:57.314Z,37.47
2023-02-18T23:32:24.502Z,34.57
2023-02-18T23:34:51.744Z,36.33
2023-02-18T23:37:38.639Z,35.90
2023-02-18T23:40:06.557Z,39.20
2023-02-18T23:42:33.429Z,38.17
2023-02-18T23:45:00.284Z,32.80
2023-02-18T23:47:27.253Z,33.57
2023-02-18T23:49:54.088Z,34.67
2023-02-18T23:52:20.911Z,35.80
2023-02-18T23:54:47.833Z,39.23
2023-02-18T23:57:14.705Z,39.23
2023-02-18T23:59:41.646Z,39.57
